sensor_id;sensor_type;location;lat;lon;timestamp;P1;durP1;ratioP1;P2;durP2;ratioP2
8640;SDS011;4358;42.100;25.222;2023-02-15T00:01:56;18.13;;;8.70;;
8640;SDS011;4358;42.100;25.222;2023-02-15T00:04:24;19.33;;;10.10;;
8640;SDS011;4358;42.100;25.222;2023-02-15T00:07:12;23.57;;;9.70;;
8640;SDS011;4358;42.100;25.222;2023-02-15T00:09:39;35.13;;;13.20;;
8640;SDS011;4358;42.100;25.222;2023-02-15T00:12:08;26.80;;;11.33;;
8640;SDS011;4358;42.100;25.222;2023-02-15T00:14:35;25.33;;;10.47;;
8640;SDS011;4358;42.100;25.222;2023-02-15T00:17:01;22.43;;;10.43;;
8640;SDS011;4358;42.100;25.222;2023-02-15T00:19:28;28.03;;;9.90;;
8640;SDS011;4358;42.100;25.222;2023-02-15T00:21:55;18.37;;;9.20;;
8640;SDS011;4358;42.100;25.222;2023-02-15T00:24:22;19.67;;;9.67;;
8640;SDS011;4358;42.100;25.222;2023-02-15T00:26:49;21.70;;;10.47;;
8640;SDS011;4358;42.100;25.222;2023-02-15T00:29:18;20.73;;;9.67;;
8640;SDS011;4358;42.100;25.222;2023-02-15T00:31:45;29.47;;;9.73;;
8640;SDS011;4358;42.100;25.222;2023-02-15T00:34:14;29.57;;;12.10;;
8640;SDS011;4358;42.100;25.222;2023-02-15T00:36:42;26.17;;;10.83;;
8640;SDS011;4358;42.100;25.222;2023-02-15T00:39:08;28.07;;;11.17;;
8640;SDS011;4358;42.100;25.222;2023-02-15T00:41:36;22.93;;;10.97;;
8640;SDS011;4358;42.100;25.222;2023-02-15T00:44:03;25.40;;;11.00;;
8640;SDS011;4358;42.100;25.222;2023-02-15T00:46:32;23.77;;;11.97;;
8640;SDS011;4358;42.100;25.222;2023-02-15T00:48:59;20.20;;;9.67;;
8640;SDS011;4358;42.100;25.222;2023-02-15T00:51:26;19.70;;;9.77;;
8640;SDS011;4358;42.100;25.222;2023-02-15T00:53:53;25.47;;;10.97;;
8640;SDS011;4358;42.100;25.222;2023-02-15T00:56:20;20.73;;;10.53;;
8640;SDS011;4358;42.100;25.222;2023-02-15T00:58:47;24.47;;;11.53;;
8640;SDS011;4358;42.100;25.222;2023-02-15T01:01:15;22.83;;;10.67;;
8640;SDS011;4358;42.100;25.222;2023-02-15T01:03:44;23.70;;;11.90;;
8640;SDS011;4358;42.100;25.222;2023-02-15T01:06:12;24.00;;;11.67;;
8640;SDS011;4358;42.100;25.222;2023-02-15T01:08:40;24.90;;;11.87;;
8640;SDS011;4358;42.100;25.222;2023-02-15T01:11:08;22.13;;;10.20;;
8640;SDS011;4358;42.100;25.222;2023-02-15T01:13:36;21.57;;;9.70;;
8640;SDS011;4358;42.100;25.222;2023-02-15T01:16:03;16.23;;;8.20;;
8640;SDS011;4358;42.100;25.222;2023-02-15T01:18:30;20.17;;;9.77;;
8640;SDS011;4358;42.100;25.222;2023-02-15T01:20:59;14.77;;;8.60;;
8640;SDS011;4358;42.100;25.222;2023-02-15T01:23:26;19.17;;;8.00;;
8640;SDS011;4358;42.100;25.222;2023-02-15T01:25:53;12.90;;;7.00;;
8640;SDS011;4358;42.100;25.222;2023-02-15T01:28:20;16.60;;;7.30;;
8640;SDS011;4358;42.100;25.222;2023-02-15T01:30:46;16.67;;;7.43;;
8640;SDS011;4358;42.100;25.222;2023-02-15T01:33:13;15.87;;;7.43;;
8640;SDS011;4358;42.100;25.222;2023-02-15T01:35:43;12.47;;;6.60;;
8640;SDS011;4358;42.100;25.222;2023-02-15T01:38:12;14.23;;;7.43;;
8640;SDS011;4358;42.100;25.222;2023-02-15T01:40:40;13.97;;;7.20;;
8640;SDS011;4358;42.100;25.222;2023-02-15T01:43:09;15.87;;;6.63;;
8640;SDS011;4358;42.100;25.222;2023-02-15T01:45:36;17.10;;;7.83;;
8640;SDS011;4358;42.100;25.222;2023-02-15T01:48:04;16.50;;;7.70;;
8640;SDS011;4358;42.100;25.222;2023-02-15T01:50:40;15.33;;;7.57;;
8640;SDS011;4358;42.100;25.222;2023-02-15T01:53:11;14.30;;;7.83;;
8640;SDS011;4358;42.100;25.222;2023-02-15T01:55:45;14.23;;;7.53;;
8640;SDS011;4358;42.100;25.222;2023-02-15T01:58:15;16.57;;;6.83;;
8640;SDS011;4358;42.100;25.222;2023-02-15T02:00:42;18.17;;;7.70;;
8640;SDS011;4358;42.100;25.222;2023-02-15T02:03:10;19.33;;;8.77;;
8640;SDS011;4358;42.100;25.222;2023-02-15T02:05:37;16.67;;;8.63;;
8640;SDS011;4358;42.100;25.222;2023-02-15T02:08:05;21.97;;;9.90;;
8640;SDS011;4358;42.100;25.222;2023-02-15T02:10:36;18.93;;;9.00;;
8640;SDS011;4358;42.100;25.222;2023-02-15T02:13:03;18.23;;;7.90;;
8640;SDS011;4358;42.100;25.222;2023-02-15T02:15:34;20.63;;;9.50;;
8640;SDS011;4358;42.100;25.222;2023-02-15T02:18:10;20.67;;;9.23;;
8640;SDS011;4358;42.100;25.222;2023-02-15T02:20:52;21.33;;;8.37;;
8640;SDS011;4358;42.100;25.222;2023-02-15T02:23:47;20.73;;;8.20;;
8640;SDS011;4358;42.100;25.222;2023-02-15T02:35:35;19.37;;;8.63;;
8640;SDS011;4358;42.100;25.222;2023-02-15T02:38:08;15.03;;;8.50;;
8640;SDS011;4358;42.100;25.222;2023-02-15T02:40:58;17.70;;;8.87;;
8640;SDS011;4358;42.100;25.222;2023-02-15T02:43:38;16.13;;;8.37;;
8640;SDS011;4358;42.100;25.222;2023-02-15T02:46:13;15.93;;;8.63;;
8640;SDS011;4358;42.100;25.222;2023-02-15T02:48:46;13.20;;;7.47;;
8640;SDS011;4358;42.100;25.222;2023-02-15T02:51:17;12.43;;;7.53;;
8640;SDS011;4358;42.100;25.222;2023-02-15T02:53:47;15.27;;;7.10;;
8640;SDS011;4358;42.100;25.222;2023-02-15T02:56:19;11.80;;;7.23;;
8640;SDS011;4358;42.100;25.222;2023-02-15T02:58:51;20.27;;;8.43;;
8640;SDS011;4358;42.100;25.222;2023-02-15T03:01:25;13.73;;;6.80;;
8640;SDS011;4358;42.100;25.222;2023-02-15T03:03:55;12.13;;;7.10;;
8640;SDS011;4358;42.100;25.222;2023-02-15T03:06:29;19.10;;;7.73;;
8640;SDS011;4358;42.100;25.222;2023-02-15T03:09:01;19.33;;;7.60;;
8640;SDS011;4358;42.100;25.222;2023-02-15T03:11:32;17.10;;;7.87;;
8640;SDS011;4358;42.100;25.222;2023-02-15T03:13:59;13.97;;;8.40;;
8640;SDS011;4358;42.100;25.222;2023-02-15T03:16:26;13.60;;;7.63;;
8640;SDS011;4358;42.100;25.222;2023-02-15T03:18:54;17.80;;;8.47;;
8640;SDS011;4358;42.100;25.222;2023-02-15T03:21:26;13.53;;;7.70;;
8640;SDS011;4358;42.100;25.222;2023-02-15T03:24:01;12.67;;;7.03;;
8640;SDS011;4358;42.100;25.222;2023-02-15T03:26:34;14.50;;;7.20;;
8640;SDS011;4358;42.100;25.222;2023-02-15T03:29:02;15.30;;;7.27;;
8640;SDS011;4358;42.100;25.222;2023-02-15T03:31:32;15.80;;;7.43;;
8640;SDS011;4358;42.100;25.222;2023-02-15T03:34:04;16.67;;;7.80;;
8640;SDS011;4358;42.100;25.222;2023-02-15T03:36:36;15.00;;;8.07;;
8640;SDS011;4358;42.100;25.222;2023-02-15T03:39:10;14.07;;;7.50;;
8640;SDS011;4358;42.100;25.222;2023-02-15T03:41:45;13.77;;;7.27;;
8640;SDS011;4358;42.100;25.222;2023-02-15T03:44:17;11.43;;;6.63;;
8640;SDS011;4358;42.100;25.222;2023-02-15T03:46:51;14.60;;;7.20;;
8640;SDS011;4358;42.100;25.222;2023-02-15T03:49:22;19.93;;;7.93;;
8640;SDS011;4358;42.100;25.222;2023-02-15T03:51:54;15.83;;;8.57;;
8640;SDS011;4358;42.100;25.222;2023-02-15T03:54:25;13.80;;;6.97;;
8640;SDS011;4358;42.100;25.222;2023-02-15T03:57:10;12.03;;;6.10;;
8640;SDS011;4358;42.100;25.222;2023-02-15T03:59:55;12.17;;;7.37;;
8640;SDS011;4358;42.100;25.222;2023-02-15T04:02:44;15.50;;;7.93;;
8640;SDS011;4358;42.100;25.222;2023-02-15T04:05:18;14.87;;;6.83;;
8640;SDS011;4358;42.100;25.222;2023-02-15T04:07:47;15.83;;;7.87;;
8640;SDS011;4358;42.100;25.222;2023-02-15T04:10:14;12.43;;;7.23;;
8640;SDS011;4358;42.100;25.222;2023-02-15T04:12:58;21.07;;;8.10;;
8640;SDS011;4358;42.100;25.222;2023-02-15T04:15:25;15.53;;;7.77;;
8640;SDS011;4358;42.100;25.222;2023-02-15T04:18:09;19.10;;;9.50;;
8640;SDS011;4358;42.100;25.222;2023-02-15T04:20:36;16.37;;;7.87;;
8640;SDS011;4358;42.100;25.222;2023-02-15T04:23:21;15.97;;;8.37;;
8640;SDS011;4358;42.100;25.222;2023-02-15T04:26:06;13.27;;;6.33;;
8640;SDS011;4358;42.100;25.222;2023-02-15T04:28:32;13.60;;;6.73;;
8640;SDS011;4358;42.100;25.222;2023-02-15T04:30:59;22.10;;;8.03;;
8640;SDS011;4358;42.100;25.222;2023-02-15T04:33:26;15.53;;;8.03;;
8640;SDS011;4358;42.100;25.222;2023-02-15T04:35:53;18.33;;;8.47;;
8640;SDS011;4358;42.100;25.222;2023-02-15T04:38:21;12.40;;;7.10;;
8640;SDS011;4358;42.100;25.222;2023-02-15T04:40:49;18.23;;;7.97;;
8640;SDS011;4358;42.100;25.222;2023-02-15T04:43:17;24.90;;;11.77;;
8640;SDS011;4358;42.100;25.222;2023-02-15T04:45:47;26.77;;;10.47;;
8640;SDS011;4358;42.100;25.222;2023-02-15T04:48:15;18.10;;;9.37;;
8640;SDS011;4358;42.100;25.222;2023-02-15T04:50:42;17.87;;;8.40;;
8640;SDS011;4358;42.100;25.222;2023-02-15T04:53:09;28.07;;;10.07;;
8640;SDS011;4358;42.100;25.222;2023-02-15T04:55:38;21.97;;;8.53;;
8640;SDS011;4358;42.100;25.222;2023-02-15T04:58:05;21.87;;;9.80;;
8640;SDS011;4358;42.100;25.222;2023-02-15T05:00:31;24.80;;;8.90;;
8640;SDS011;4358;42.100;25.222;2023-02-15T05:02:58;16.90;;;7.43;;
8640;SDS011;4358;42.100;25.222;2023-02-15T05:05:25;13.40;;;6.23;;
8640;SDS011;4358;42.100;25.222;2023-02-15T05:07:52;12.93;;;6.97;;
8640;SDS011;4358;42.100;25.222;2023-02-15T05:10:19;19.33;;;8.10;;
8640;SDS011;4358;42.100;25.222;2023-02-15T05:12:47;13.37;;;7.17;;
8640;SDS011;4358;42.100;25.222;2023-02-15T05:15:14;14.80;;;8.53;;
8640;SDS011;4358;42.100;25.222;2023-02-15T05:17:41;18.70;;;7.57;;
8640;SDS011;4358;42.100;25.222;2023-02-15T05:20:08;14.77;;;7.60;;
8640;SDS011;4358;42.100;25.222;2023-02-15T05:22:35;21.77;;;11.40;;
8640;SDS011;4358;42.100;25.222;2023-02-15T05:25:02;18.23;;;9.73;;
8640;SDS011;4358;42.100;25.222;2023-02-15T05:27:48;24.03;;;9.47;;
8640;SDS011;4358;42.100;25.222;2023-02-15T05:30:32;15.57;;;8.07;;
8640;SDS011;4358;42.100;25.222;2023-02-15T05:32:59;18.83;;;8.33;;
8640;SDS011;4358;42.100;25.222;2023-02-15T05:35:26;15.30;;;7.80;;
8640;SDS011;4358;42.100;25.222;2023-02-15T05:37:53;11.47;;;7.10;;
8640;SDS011;4358;42.100;25.222;2023-02-15T05:40:20;12.37;;;6.53;;
8640;SDS011;4358;42.100;25.222;2023-02-15T05:42:48;14.27;;;6.57;;
8640;SDS011;4358;42.100;25.222;2023-02-15T05:45:15;11.70;;;6.53;;
8640;SDS011;4358;42.100;25.222;2023-02-15T05:47:42;53.27;;;19.83;;
8640;SDS011;4358;42.100;25.222;2023-02-15T05:50:09;31.80;;;13.60;;
8640;SDS011;4358;42.100;25.222;2023-02-15T05:52:37;15.70;;;7.20;;
8640;SDS011;4358;42.100;25.222;2023-02-15T05:55:04;10.47;;;5.60;;
8640;SDS011;4358;42.100;25.222;2023-02-15T05:57:33;16.57;;;7.47;;
8640;SDS011;4358;42.100;25.222;2023-02-15T06:00:02;10.77;;;6.10;;
8640;SDS011;4358;42.100;25.222;2023-02-15T06:02:32;8.87;;;6.17;;
8640;SDS011;4358;42.100;25.222;2023-02-15T06:05:00;22.73;;;9.43;;
8640;SDS011;4358;42.100;25.222;2023-02-15T06:07:27;26.10;;;11.07;;
8640;SDS011;4358;42.100;25.222;2023-02-15T06:09:54;27.43;;;10.20;;
8640;SDS011;4358;42.100;25.222;2023-02-15T06:12:20;29.03;;;11.70;;
8640;SDS011;4358;42.100;25.222;2023-02-15T06:14:47;23.13;;;7.97;;
8640;SDS011;4358;42.100;25.222;2023-02-15T06:17:15;23.03;;;10.20;;
8640;SDS011;4358;42.100;25.222;2023-02-15T06:19:43;21.80;;;9.73;;
8640;SDS011;4358;42.100;25.222;2023-02-15T06:22:10;25.07;;;12.43;;
8640;SDS011;4358;42.100;25.222;2023-02-15T06:24:39;37.20;;;16.77;;
8640;SDS011;4358;42.100;25.222;2023-02-15T06:27:07;32.70;;;16.53;;
8640;SDS011;4358;42.100;25.222;2023-02-15T06:29:34;25.63;;;12.87;;
8640;SDS011;4358;42.100;25.222;2023-02-15T06:32:01;28.97;;;13.63;;
8640;SDS011;4358;42.100;25.222;2023-02-15T06:34:29;25.77;;;12.30;;
8640;SDS011;4358;42.100;25.222;2023-02-15T06:36:56;23.73;;;11.23;;
8640;SDS011;4358;42.100;25.222;2023-02-15T06:39:23;27.47;;;10.67;;
8640;SDS011;4358;42.100;25.222;2023-02-15T06:41:50;21.30;;;10.30;;
8640;SDS011;4358;42.100;25.222;2023-02-15T06:44:17;22.87;;;10.53;;
8640;SDS011;4358;42.100;25.222;2023-02-15T06:46:44;18.93;;;9.33;;
8640;SDS011;4358;42.100;25.222;2023-02-15T06:49:11;21.83;;;10.70;;
8640;SDS011;4358;42.100;25.222;2023-02-15T06:51:39;26.10;;;10.50;;
8640;SDS011;4358;42.100;25.222;2023-02-15T06:54:06;25.20;;;10.13;;
8640;SDS011;4358;42.100;25.222;2023-02-15T06:56:33;19.67;;;9.13;;
8640;SDS011;4358;42.100;25.222;2023-02-15T06:58:59;30.27;;;10.30;;
8640;SDS011;4358;42.100;25.222;2023-02-15T07:01:26;20.53;;;9.63;;
8640;SDS011;4358;42.100;25.222;2023-02-15T07:03:53;13.33;;;7.47;;
8640;SDS011;4358;42.100;25.222;2023-02-15T07:06:20;16.70;;;7.97;;
8640;SDS011;4358;42.100;25.222;2023-02-15T07:08:48;21.63;;;8.43;;
8640;SDS011;4358;42.100;25.222;2023-02-15T07:11:15;20.90;;;7.70;;
8640;SDS011;4358;42.100;25.222;2023-02-15T07:13:59;16.73;;;7.27;;
8640;SDS011;4358;42.100;25.222;2023-02-15T07:16:25;13.93;;;6.60;;
8640;SDS011;4358;42.100;25.222;2023-02-15T07:18:53;17.20;;;8.07;;
8640;SDS011;4358;42.100;25.222;2023-02-15T07:21:20;16.73;;;7.47;;
8640;SDS011;4358;42.100;25.222;2023-02-15T07:23:48;15.47;;;7.57;;
8640;SDS011;4358;42.100;25.222;2023-02-15T07:26:15;22.43;;;6.93;;
8640;SDS011;4358;42.100;25.222;2023-02-15T07:28:41;13.20;;;7.17;;
8640;SDS011;4358;42.100;25.222;2023-02-15T07:31:08;15.40;;;7.87;;
8640;SDS011;4358;42.100;25.222;2023-02-15T07:33:35;16.93;;;8.00;;
8640;SDS011;4358;42.100;25.222;2023-02-15T07:36:02;16.57;;;8.00;;
8640;SDS011;4358;42.100;25.222;2023-02-15T07:38:31;19.20;;;8.13;;
8640;SDS011;4358;42.100;25.222;2023-02-15T07:41:01;25.73;;;10.03;;
8640;SDS011;4358;42.100;25.222;2023-02-15T07:43:29;19.93;;;9.27;;
8640;SDS011;4358;42.100;25.222;2023-02-15T07:45:59;21.20;;;10.13;;
8640;SDS011;4358;42.100;25.222;2023-02-15T07:48:26;25.30;;;11.53;;
8640;SDS011;4358;42.100;25.222;2023-02-15T07:50:53;24.53;;;11.00;;
8640;SDS011;4358;42.100;25.222;2023-02-15T07:53:20;19.43;;;9.97;;
8640;SDS011;4358;42.100;25.222;2023-02-15T07:55:47;21.37;;;9.73;;
8640;SDS011;4358;42.100;25.222;2023-02-15T07:58:15;21.20;;;9.57;;
8640;SDS011;4358;42.100;25.222;2023-02-15T08:00:41;19.17;;;10.30;;
8640;SDS011;4358;42.100;25.222;2023-02-15T08:03:23;20.00;;;9.87;;
8640;SDS011;4358;42.100;25.222;2023-02-15T08:05:55;16.67;;;8.93;;
8640;SDS011;4358;42.100;25.222;2023-02-15T08:08:23;19.07;;;9.20;;
8640;SDS011;4358;42.100;25.222;2023-02-15T08:10:59;16.43;;;8.60;;
8640;SDS011;4358;42.100;25.222;2023-02-15T08:13:47;13.37;;;7.30;;
8640;SDS011;4358;42.100;25.222;2023-02-15T08:16:28;14.43;;;7.67;;
8640;SDS011;4358;42.100;25.222;2023-02-15T08:18:57;13.43;;;7.60;;
8640;SDS011;4358;42.100;25.222;2023-02-15T08:21:26;13.20;;;7.13;;
8640;SDS011;4358;42.100;25.222;2023-02-15T08:23:54;17.17;;;7.57;;
8640;SDS011;4358;42.100;25.222;2023-02-15T08:26:21;16.50;;;7.30;;
8640;SDS011;4358;42.100;25.222;2023-02-15T08:28:50;16.30;;;8.63;;
8640;SDS011;4358;42.100;25.222;2023-02-15T08:31:17;13.40;;;7.50;;
8640;SDS011;4358;42.100;25.222;2023-02-15T08:33:45;16.00;;;8.83;;
8640;SDS011;4358;42.100;25.222;2023-02-15T08:36:14;14.53;;;6.93;;
8640;SDS011;4358;42.100;25.222;2023-02-15T08:38:43;17.17;;;9.27;;
8640;SDS011;4358;42.100;25.222;2023-02-15T08:41:11;15.77;;;7.87;;
8640;SDS011;4358;42.100;25.222;2023-02-15T08:43:39;19.60;;;8.77;;
8640;SDS011;4358;42.100;25.222;2023-02-15T08:46:07;15.50;;;8.97;;
8640;SDS011;4358;42.100;25.222;2023-02-15T08:48:37;14.70;;;7.50;;
8640;SDS011;4358;42.100;25.222;2023-02-15T08:51:05;17.03;;;8.00;;
8640;SDS011;4358;42.100;25.222;2023-02-15T08:53:35;13.83;;;7.83;;
8640;SDS011;4358;42.100;25.222;2023-02-15T08:56:02;17.40;;;8.40;;
8640;SDS011;4358;42.100;25.222;2023-02-15T08:58:30;15.03;;;8.03;;
8640;SDS011;4358;42.100;25.222;2023-02-15T09:00:57;12.23;;;7.20;;
8640;SDS011;4358;42.100;25.222;2023-02-15T09:03:25;15.40;;;8.50;;
8640;SDS011;4358;42.100;25.222;2023-02-15T09:05:56;13.10;;;7.63;;
8640;SDS011;4358;42.100;25.222;2023-02-15T09:08:24;12.90;;;7.60;;
8640;SDS011;4358;42.100;25.222;2023-02-15T09:10:51;12.40;;;6.83;;
8640;SDS011;4358;42.100;25.222;2023-02-15T09:13:18;15.03;;;8.10;;
8640;SDS011;4358;42.100;25.222;2023-02-15T09:15:45;13.27;;;7.00;;
8640;SDS011;4358;42.100;25.222;2023-02-15T09:18:12;11.87;;;7.00;;
8640;SDS011;4358;42.100;25.222;2023-02-15T09:20:44;11.93;;;6.90;;
8640;SDS011;4358;42.100;25.222;2023-02-15T09:23:11;14.27;;;7.97;;
8640;SDS011;4358;42.100;25.222;2023-02-15T09:25:37;22.83;;;10.23;;
8640;SDS011;4358;42.100;25.222;2023-02-15T09:28:04;21.27;;;9.10;;
8640;SDS011;4358;42.100;25.222;2023-02-15T09:30:31;14.83;;;7.40;;
8640;SDS011;4358;42.100;25.222;2023-02-15T09:32:58;12.43;;;7.50;;
8640;SDS011;4358;42.100;25.222;2023-02-15T09:35:25;14.37;;;8.00;;
8640;SDS011;4358;42.100;25.222;2023-02-15T09:37:53;17.73;;;8.23;;
8640;SDS011;4358;42.100;25.222;2023-02-15T09:40:20;15.70;;;7.50;;
8640;SDS011;4358;42.100;25.222;2023-02-15T09:42:50;15.97;;;8.33;;
8640;SDS011;4358;42.100;25.222;2023-02-15T09:45:50;15.60;;;6.90;;
8640;SDS011;4358;42.100;25.222;2023-02-15T09:48:38;15.40;;;7.97;;
8640;SDS011;4358;42.100;25.222;2023-02-15T09:51:12;15.03;;;8.10;;
8640;SDS011;4358;42.100;25.222;2023-02-15T09:54:15;13.57;;;7.57;;
8640;SDS011;4358;42.100;25.222;2023-02-15T09:56:55;16.63;;;8.23;;
8640;SDS011;4358;42.100;25.222;2023-02-15T09:59:27;11.30;;;6.83;;
8640;SDS011;4358;42.100;25.222;2023-02-15T10:02:09;14.53;;;7.43;;
8640;SDS011;4358;42.100;25.222;2023-02-15T10:04:53;13.63;;;7.40;;
8640;SDS011;4358;42.100;25.222;2023-02-15T10:07:38;13.37;;;7.63;;
8640;SDS011;4358;42.100;25.222;2023-02-15T10:10:25;14.10;;;6.87;;
8640;SDS011;4358;42.100;25.222;2023-02-15T10:13:05;17.47;;;8.30;;
8640;SDS011;4358;42.100;25.222;2023-02-15T10:15:44;12.97;;;8.23;;
8640;SDS011;4358;42.100;25.222;2023-02-15T10:18:28;13.07;;;7.27;;
8640;SDS011;4358;42.100;25.222;2023-02-15T10:21:06;12.67;;;7.37;;
8640;SDS011;4358;42.100;25.222;2023-02-15T10:23:45;12.50;;;6.93;;
8640;SDS011;4358;42.100;25.222;2023-02-15T10:26:25;24.77;;;10.90;;
8640;SDS011;4358;42.100;25.222;2023-02-15T10:28:59;15.00;;;8.03;;
8640;SDS011;4358;42.100;25.222;2023-02-15T10:31:31;14.53;;;8.77;;
8640;SDS011;4358;42.100;25.222;2023-02-15T10:34:09;12.27;;;7.73;;
8640;SDS011;4358;42.100;25.222;2023-02-15T10:36:50;14.23;;;8.13;;
8640;SDS011;4358;42.100;25.222;2023-02-15T10:39:34;13.13;;;7.40;;
8640;SDS011;4358;42.100;25.222;2023-02-15T10:42:13;12.03;;;8.00;;
8640;SDS011;4358;42.100;25.222;2023-02-15T10:44:49;14.33;;;8.80;;
8640;SDS011;4358;42.100;25.222;2023-02-15T10:47:33;13.43;;;8.13;;
8640;SDS011;4358;42.100;25.222;2023-02-15T10:50:17;11.30;;;7.33;;
8640;SDS011;4358;42.100;25.222;2023-02-15T10:52:56;12.10;;;7.93;;
8640;SDS011;4358;42.100;25.222;2023-02-15T10:55:37;13.13;;;7.67;;
8640;SDS011;4358;42.100;25.222;2023-02-15T10:58:17;13.97;;;8.50;;
8640;SDS011;4358;42.100;25.222;2023-02-15T11:00:53;13.77;;;7.43;;
8640;SDS011;4358;42.100;25.222;2023-02-15T11:03:29;14.47;;;8.03;;
8640;SDS011;4358;42.100;25.222;2023-02-15T11:06:07;13.00;;;8.40;;
8640;SDS011;4358;42.100;25.222;2023-02-15T11:08:39;13.93;;;7.30;;
8640;SDS011;4358;42.100;25.222;2023-02-15T11:11:10;13.30;;;8.63;;
8640;SDS011;4358;42.100;25.222;2023-02-15T11:13:44;14.03;;;7.47;;
8640;SDS011;4358;42.100;25.222;2023-02-15T11:16:15;12.70;;;8.30;;
8640;SDS011;4358;42.100;25.222;2023-02-15T11:18:46;14.10;;;8.40;;
8640;SDS011;4358;42.100;25.222;2023-02-15T11:21:20;11.07;;;7.37;;
8640;SDS011;4358;42.100;25.222;2023-02-15T11:23:50;11.67;;;8.20;;
8640;SDS011;4358;42.100;25.222;2023-02-15T11:26:19;12.83;;;9.20;;
8640;SDS011;4358;42.100;25.222;2023-02-15T11:28:54;9.97;;;7.57;;
8640;SDS011;4358;42.100;25.222;2023-02-15T11:31:26;11.23;;;6.33;;
8640;SDS011;4358;42.100;25.222;2023-02-15T11:34:03;9.43;;;5.57;;
8640;SDS011;4358;42.100;25.222;2023-02-15T11:36:39;6.93;;;5.00;;
8640;SDS011;4358;42.100;25.222;2023-02-15T11:39:09;7.23;;;5.23;;
8640;SDS011;4358;42.100;25.222;2023-02-15T11:41:41;9.70;;;6.30;;
8640;SDS011;4358;42.100;25.222;2023-02-15T11:44:13;9.67;;;5.40;;
8640;SDS011;4358;42.100;25.222;2023-02-15T11:46:44;8.20;;;5.73;;
8640;SDS011;4358;42.100;25.222;2023-02-15T11:49:14;7.50;;;5.00;;
8640;SDS011;4358;42.100;25.222;2023-02-15T11:51:48;9.30;;;5.67;;
8640;SDS011;4358;42.100;25.222;2023-02-15T11:54:17;8.13;;;5.53;;
8640;SDS011;4358;42.100;25.222;2023-02-15T11:56:45;9.47;;;5.17;;
8640;SDS011;4358;42.100;25.222;2023-02-15T11:59:16;8.20;;;4.83;;
8640;SDS011;4358;42.100;25.222;2023-02-15T12:01:48;6.37;;;4.77;;
8640;SDS011;4358;42.100;25.222;2023-02-15T12:04:16;6.90;;;4.87;;
8640;SDS011;4358;42.100;25.222;2023-02-15T12:06:51;10.20;;;6.13;;
8640;SDS011;4358;42.100;25.222;2023-02-15T12:09:22;8.00;;;5.37;;
8640;SDS011;4358;42.100;25.222;2023-02-15T12:12:10;8.80;;;5.47;;
8640;SDS011;4358;42.100;25.222;2023-02-15T12:14:48;10.43;;;6.90;;
8640;SDS011;4358;42.100;25.222;2023-02-15T12:17:16;8.97;;;6.27;;
8640;SDS011;4358;42.100;25.222;2023-02-15T12:19:44;8.87;;;5.83;;
8640;SDS011;4358;42.100;25.222;2023-02-15T12:22:20;9.57;;;6.23;;
8640;SDS011;4358;42.100;25.222;2023-02-15T12:24:50;9.23;;;6.00;;
8640;SDS011;4358;42.100;25.222;2023-02-15T12:27:19;8.10;;;5.20;;
8640;SDS011;4358;42.100;25.222;2023-02-15T12:29:50;13.20;;;7.00;;
8640;SDS011;4358;42.100;25.222;2023-02-15T12:32:19;8.63;;;5.60;;
8640;SDS011;4358;42.100;25.222;2023-02-15T12:34:50;10.27;;;5.37;;
8640;SDS011;4358;42.100;25.222;2023-02-15T12:37:22;9.80;;;5.47;;
8640;SDS011;4358;42.100;25.222;2023-02-15T12:39:53;8.33;;;5.47;;
8640;SDS011;4358;42.100;25.222;2023-02-15T12:42:21;8.30;;;5.60;;
8640;SDS011;4358;42.100;25.222;2023-02-15T12:44:55;10.20;;;5.77;;
8640;SDS011;4358;42.100;25.222;2023-02-15T12:47:24;9.17;;;5.47;;
8640;SDS011;4358;42.100;25.222;2023-02-15T12:50:05;9.17;;;6.13;;
8640;SDS011;4358;42.100;25.222;2023-02-15T12:52:42;7.17;;;5.07;;
8640;SDS011;4358;42.100;25.222;2023-02-15T12:55:11;8.57;;;4.83;;
8640;SDS011;4358;42.100;25.222;2023-02-15T12:57:45;6.40;;;4.70;;
8640;SDS011;4358;42.100;25.222;2023-02-15T13:00:27;9.00;;;5.40;;
8640;SDS011;4358;42.100;25.222;2023-02-15T13:02:57;6.70;;;4.70;;
8640;SDS011;4358;42.100;25.222;2023-02-15T13:05:26;6.33;;;4.67;;
8640;SDS011;4358;42.100;25.222;2023-02-15T13:07:58;7.07;;;5.30;;
8640;SDS011;4358;42.100;25.222;2023-02-15T13:10:28;7.43;;;5.40;;
8640;SDS011;4358;42.100;25.222;2023-02-15T13:12:57;9.10;;;5.90;;
8640;SDS011;4358;42.100;25.222;2023-02-15T13:15:27;8.27;;;5.03;;
8640;SDS011;4358;42.100;25.222;2023-02-15T13:17:59;7.63;;;5.30;;
8640;SDS011;4358;42.100;25.222;2023-02-15T13:20:27;8.63;;;5.20;;
8640;SDS011;4358;42.100;25.222;2023-02-15T13:22:57;7.30;;;4.93;;
8640;SDS011;4358;42.100;25.222;2023-02-15T13:25:26;6.53;;;4.63;;
8640;SDS011;4358;42.100;25.222;2023-02-15T13:27:57;6.47;;;4.77;;
8640;SDS011;4358;42.100;25.222;2023-02-15T13:30:30;5.97;;;4.00;;
8640;SDS011;4358;42.100;25.222;2023-02-15T13:33:02;6.73;;;4.17;;
8640;SDS011;4358;42.100;25.222;2023-02-15T13:35:35;4.93;;;3.93;;
8640;SDS011;4358;42.100;25.222;2023-02-15T13:38:11;7.77;;;4.77;;
8640;SDS011;4358;42.100;25.222;2023-02-15T13:40:53;5.57;;;4.33;;
8640;SDS011;4358;42.100;25.222;2023-02-15T13:43:32;7.50;;;4.87;;
8640;SDS011;4358;42.100;25.222;2023-02-15T13:46:11;7.27;;;4.77;;
8640;SDS011;4358;42.100;25.222;2023-02-15T13:48:51;8.27;;;4.90;;
8640;SDS011;4358;42.100;25.222;2023-02-15T13:51:30;9.83;;;5.67;;
8640;SDS011;4358;42.100;25.222;2023-02-15T13:54:18;8.30;;;5.20;;
8640;SDS011;4358;42.100;25.222;2023-02-15T14:00:08;8.40;;;5.70;;
8640;SDS011;4358;42.100;25.222;2023-02-15T14:05:59;6.83;;;4.80;;
8640;SDS011;4358;42.100;25.222;2023-02-15T14:08:39;8.70;;;6.37;;
8640;SDS011;4358;42.100;25.222;2023-02-15T14:11:19;9.57;;;6.37;;
8640;SDS011;4358;42.100;25.222;2023-02-15T14:13:57;8.93;;;5.83;;
8640;SDS011;4358;42.100;25.222;2023-02-15T14:16:39;9.83;;;6.23;;
8640;SDS011;4358;42.100;25.222;2023-02-15T14:19:16;12.07;;;6.57;;
8640;SDS011;4358;42.100;25.222;2023-02-15T14:21:51;11.90;;;6.83;;
8640;SDS011;4358;42.100;25.222;2023-02-15T14:24:29;8.47;;;6.00;;
8640;SDS011;4358;42.100;25.222;2023-02-15T14:27:07;12.23;;;6.73;;
8640;SDS011;4358;42.100;25.222;2023-02-15T14:29:45;10.67;;;6.50;;
8640;SDS011;4358;42.100;25.222;2023-02-15T14:32:16;8.00;;;5.73;;
8640;SDS011;4358;42.100;25.222;2023-02-15T14:34:51;11.00;;;7.07;;
8640;SDS011;4358;42.100;25.222;2023-02-15T14:37:22;7.20;;;6.00;;
8640;SDS011;4358;42.100;25.222;2023-02-15T14:39:56;10.83;;;6.93;;
8640;SDS011;4358;42.100;25.222;2023-02-15T14:42:48;7.57;;;6.10;;
8640;SDS011;4358;42.100;25.222;2023-02-15T14:45:25;8.73;;;6.37;;
8640;SDS011;4358;42.100;25.222;2023-02-15T14:48:00;10.13;;;7.53;;
8640;SDS011;4358;42.100;25.222;2023-02-15T14:50:42;12.87;;;7.97;;
8640;SDS011;4358;42.100;25.222;2023-02-15T14:53:22;17.87;;;9.13;;
8640;SDS011;4358;42.100;25.222;2023-02-15T14:58:58;11.00;;;7.63;;
8640;SDS011;4358;42.100;25.222;2023-02-15T15:01:55;11.63;;;7.37;;
8640;SDS011;4358;42.100;25.222;2023-02-15T15:04:30;11.67;;;7.13;;
8640;SDS011;4358;42.100;25.222;2023-02-15T15:07:07;11.17;;;7.07;;
8640;SDS011;4358;42.100;25.222;2023-02-15T15:09:41;14.03;;;7.87;;
8640;SDS011;4358;42.100;25.222;2023-02-15T15:12:13;11.97;;;7.80;;
8640;SDS011;4358;42.100;25.222;2023-02-15T15:15:01;13.80;;;7.53;;
8640;SDS011;4358;42.100;25.222;2023-02-15T15:26:23;13.60;;;7.77;;
8640;SDS011;4358;42.100;25.222;2023-02-15T15:28:52;12.47;;;7.63;;
8640;SDS011;4358;42.100;25.222;2023-02-15T15:31:22;16.73;;;7.70;;
8640;SDS011;4358;42.100;25.222;2023-02-15T15:34:15;11.47;;;8.10;;
8640;SDS011;4358;42.100;25.222;2023-02-15T15:37:16;13.80;;;8.07;;
8640;SDS011;4358;42.100;25.222;2023-02-15T15:40:17;14.53;;;8.67;;
8640;SDS011;4358;42.100;25.222;2023-02-15T15:46:21;16.07;;;8.80;;
8640;SDS011;4358;42.100;25.222;2023-02-15T15:49:01;22.23;;;12.53;;